createdAt,value
2018-05-09T00:01:40.615Z,7.50
2018-05-09T00:04:08.196Z,5.30
2018-05-09T00:06:35.716Z,7.00
2018-05-09T00:09:03.306Z,7.40
2018-05-09T00:11:31.602Z,6.53
2018-05-09T00:13:59.214Z,10.73
2018-05-09T00:16:26.752Z,7.33
2018-05-09T00:18:54.313Z,6.00
2018-05-09T00:21:22.614Z,6.50
2018-05-09T00:23:50.168Z,7.77
2018-05-09T00:26:18.495Z,6.00
2018-05-09T00:28:46.050Z,9.63
2018-05-09T00:31:13.626Z,7.10
2018-05-09T00:33:41.481Z,9.43
2018-05-09T00:36:09.789Z,7.10
2018-05-09T00:38:37.331Z,8.33
2018-05-09T00:41:04.932Z,8.00
2018-05-09T00:43:32.469Z,4.07
2018-05-09T00:46:00.040Z,6.53
2018-05-09T00:48:27.578Z,4.77
2018-05-09T00:50:55.169Z,5.93
2018-05-09T00:53:22.670Z,6.20
2018-05-09T00:55:50.228Z,6.10
2018-05-09T00:58:17.777Z,4.80
2018-05-09T01:00:45.352Z,7.10
2018-05-09T01:03:12.888Z,6.60
2018-05-09T01:05:40.464Z,4.50
2018-05-09T01:08:08.005Z,5.73
2018-05-09T01:10:36.320Z,7.10
2018-05-09T01:13:03.871Z,4.13
2018-05-09T01:15:32.226Z,7.43
2018-05-09T01:17:59.801Z,5.33
2018-05-09T01:20:27.337Z,5.30
2018-05-09T01:22:54.911Z,5.10
2018-05-09T01:25:22.473Z,5.90
2018-05-09T01:27:50.016Z,6.03
2018-05-09T01:30:18.359Z,6.87
2018-05-09T01:32:45.935Z,7.27
2018-05-09T01:35:13.494Z,4.30
2018-05-09T01:37:41.084Z,8.67
2018-05-09T01:40:08.661Z,8.63
2018-05-09T01:42:36.203Z,9.27
2018-05-09T01:45:03.813Z,4.30
2018-05-09T01:47:31.316Z,7.53
2018-05-09T01:49:59.642Z,7.77
2018-05-09T01:52:27.212Z,4.10
2018-05-09T01:54:54.813Z,5.40
2018-05-09T01:57:23.080Z,6.80
2018-05-09T01:59:50.604Z,5.07
2018-05-09T02:02:18.144Z,5.87
2018-05-09T02:04:45.698Z,6.90
2018-05-09T02:07:13.251Z,5.33
2018-05-09T02:09:40.766Z,4.70
2018-05-09T02:12:08.345Z,8.33
2018-05-09T02:14:35.869Z,4.83
2018-05-09T02:17:03.436Z,7.03
2018-05-09T02:19:31.005Z,6.73
2018-05-09T02:21:58.536Z,7.97
2018-05-09T02:24:26.043Z,7.20
2018-05-09T02:26:54.395Z,4.40
2018-05-09T02:29:21.971Z,5.23
2018-05-09T02:31:49.535Z,9.63
2018-05-09T02:34:17.071Z,5.20
2018-05-09T02:36:44.604Z,6.13
2018-05-09T02:39:12.914Z,7.13
2018-05-09T02:41:40.471Z,6.40
2018-05-09T02:44:08.833Z,4.90
2018-05-09T02:46:36.380Z,4.43
2018-05-09T02:49:03.900Z,8.43
2018-05-09T02:51:32.212Z,4.77
2018-05-09T02:53:59.782Z,5.17
2018-05-09T02:56:27.388Z,5.83
2018-05-09T02:58:54.960Z,5.20
2018-05-09T03:01:22.501Z,5.67
2018-05-09T03:03:50.050Z,6.57
2018-05-09T03:06:18.427Z,6.23
2018-05-09T03:08:45.957Z,7.10
2018-05-09T03:11:13.494Z,6.37
2018-05-09T03:13:41.829Z,8.63
2018-05-09T03:16:09.385Z,6.20
2018-05-09T03:18:36.950Z,6.60
2018-05-09T03:21:04.520Z,7.07
2018-05-09T03:23:32.081Z,5.53
2018-05-09T03:26:00.379Z,5.93
2018-05-09T03:28:27.917Z,6.93
2018-05-09T03:30:55.470Z,9.27
2018-05-09T03:33:23.112Z,7.17
2018-05-09T03:35:50.747Z,7.50
2018-05-09T03:38:18.304Z,7.07
2018-05-09T03:40:46.700Z,6.60
2018-05-09T03:43:14.255Z,7.53
2018-05-09T03:45:41.777Z,7.00
2018-05-09T03:48:09.344Z,8.53
2018-05-09T03:50:36.902Z,6.53
2018-05-09T03:53:05.196Z,5.73
2018-05-09T03:55:33.512Z,6.10
2018-05-09T03:58:01.044Z,7.13
2018-05-09T04:00:29.373Z,5.73
2018-05-09T04:03:09.891Z,5.20
2018-05-09T04:05:49.338Z,5.73
2018-05-09T04:11:18.601Z,5.70
2018-05-09T04:13:46.127Z,7.03
2018-05-09T04:16:13.644Z,7.03
2018-05-09T04:18:41.182Z,6.63
2018-05-09T04:21:08.732Z,10.00
2018-05-09T04:23:36.280Z,10.77
2018-05-09T04:26:04.595Z,6.97
2018-05-09T04:28:32.120Z,9.00
2018-05-09T04:30:59.662Z,9.20
2018-05-09T04:33:27.835Z,9.27
2018-05-09T04:35:55.387Z,6.67
2018-05-09T04:38:22.953Z,9.63
2018-05-09T04:40:50.525Z,8.13
2018-05-09T04:43:18.142Z,9.13
2018-05-09T04:45:45.774Z,12.93
2018-05-09T04:48:13.463Z,9.57
2018-05-09T04:50:41.032Z,6.33
2018-05-09T04:53:08.546Z,7.27
2018-05-09T04:55:36.177Z,9.37
2018-05-09T04:58:03.700Z,6.87
2018-05-09T05:00:31.302Z,9.10
2018-05-09T05:02:58.892Z,14.00
2018-05-09T05:05:26.434Z,8.07
2018-05-09T05:07:54.808Z,11.83
2018-05-09T05:10:22.318Z,8.07
2018-05-09T05:12:50.684Z,15.00
2018-05-09T05:15:18.986Z,7.43
2018-05-09T05:17:47.495Z,6.40
2018-05-09T05:20:15.143Z,6.63
2018-05-09T05:22:43.578Z,9.47
2018-05-09T05:25:11.182Z,8.77
2018-05-09T05:27:38.792Z,13.77
2018-05-09T05:30:07.102Z,8.03
2018-05-09T05:32:34.612Z,8.53
2018-05-09T05:35:02.138Z,9.53
2018-05-09T05:37:29.748Z,8.30
2018-05-09T05:39:57.380Z,6.53
2018-05-09T05:42:24.935Z,6.20
2018-05-09T05:44:53.317Z,9.53
2018-05-09T05:47:20.830Z,9.87
2018-05-09T05:49:48.565Z,7.00
2018-05-09T05:52:16.275Z,6.27
2018-05-09T05:54:43.887Z,8.23
2018-05-09T05:57:12.202Z,6.30
2018-05-09T05:59:40.039Z,6.97
2018-05-09T06:02:07.660Z,6.37
2018-05-09T06:04:36.027Z,9.57
2018-05-09T06:07:03.584Z,8.17
2018-05-09T06:09:31.329Z,9.77
2018-05-09T06:11:58.900Z,6.47
2018-05-09T06:14:26.571Z,8.20
2018-05-09T06:16:54.245Z,4.60
2018-05-09T06:19:21.853Z,5.10
2018-05-09T06:21:49.513Z,4.20
2018-05-09T06:24:17.136Z,6.90
2018-05-09T06:26:44.668Z,3.87
2018-05-09T06:29:12.309Z,5.87
2018-05-09T06:31:41.073Z,3.63
2018-05-09T06:34:08.661Z,4.83
2018-05-09T06:36:36.189Z,5.30
2018-05-09T06:39:05.308Z,6.03
2018-05-09T06:41:33.178Z,4.17
2018-05-09T06:44:00.758Z,4.70
2018-05-09T06:46:28.278Z,4.23
2018-05-09T06:48:56.572Z,5.20
2018-05-09T06:51:24.089Z,4.10
2018-05-09T06:53:51.713Z,5.65
2018-05-09T06:56:19.980Z,3.00
2018-05-09T06:58:47.501Z,5.28
2018-05-09T07:01:15.012Z,5.20
2018-05-09T07:03:42.544Z,4.00
2018-05-09T07:06:10.151Z,4.10
2018-05-09T07:08:37.655Z,3.75
2018-05-09T07:11:06.006Z,3.15
2018-05-09T07:13:33.612Z,2.15
2018-05-09T07:16:01.921Z,2.53
2018-05-09T07:18:29.440Z,3.17
2018-05-09T07:20:56.986Z,4.32
2018-05-09T07:23:24.493Z,3.03
2018-05-09T07:25:52.057Z,4.45
2018-05-09T07:28:19.728Z,2.97
2018-05-09T07:30:47.245Z,3.10
2018-05-09T07:33:15.525Z,2.62
2018-05-09T07:35:43.827Z,2.92
2018-05-09T07:38:11.338Z,6.75
2018-05-09T07:40:38.857Z,3.33
2018-05-09T07:43:07.163Z,4.15
2018-05-09T07:45:34.700Z,3.03
2018-05-09T07:48:02.201Z,2.80
2018-05-09T07:50:29.762Z,3.53
2018-05-09T07:52:58.060Z,5.25
2018-05-09T07:55:25.656Z,5.68
2018-05-09T07:57:53.201Z,1.90
2018-05-09T08:00:21.497Z,5.03
2018-05-09T08:02:49.032Z,3.53
2018-05-09T08:05:16.557Z,2.50
2018-05-09T08:07:44.056Z,2.97
2018-05-09T08:10:11.694Z,4.90
2018-05-09T08:12:39.189Z,3.53
2018-05-09T08:15:06.770Z,3.65
2018-05-09T08:17:34.275Z,3.00
2018-05-09T08:20:02.602Z,5.40
2018-05-09T08:22:30.111Z,3.17
2018-05-09T08:24:57.619Z,2.62
2018-05-09T08:27:25.137Z,2.08
2018-05-09T08:29:52.662Z,5.00
2018-05-09T08:32:20.978Z,3.60
2018-05-09T08:34:48.477Z,2.60
2018-05-09T08:37:16.046Z,1.87
2018-05-09T08:39:43.645Z,2.12
2018-05-09T08:42:11.244Z,4.57
2018-05-09T08:44:38.782Z,3.40
2018-05-09T08:47:06.350Z,2.40
2018-05-09T08:49:33.905Z,1.95
2018-05-09T08:52:01.442Z,3.15
2018-05-09T08:54:28.955Z,1.73
2018-05-09T08:56:56.472Z,2.25
2018-05-09T08:59:24.853Z,1.65
2018-05-09T09:01:52.296Z,4.20
2018-05-09T09:04:19.875Z,1.58
2018-05-09T09:06:47.419Z,3.37
2018-05-09T09:09:14.939Z,1.45
2018-05-09T09:11:43.334Z,2.17
2018-05-09T09:14:11.631Z,2.00
2018-05-09T09:16:39.141Z,1.95
2018-05-09T09:19:06.671Z,2.90
2018-05-09T09:21:35.107Z,3.67
2018-05-09T09:24:02.702Z,2.03
2018-05-09T09:26:30.219Z,5.87
2018-05-09T09:28:57.742Z,2.67
2018-05-09T09:31:25.350Z,3.67
2018-05-09T09:33:53.711Z,4.70
2018-05-09T09:36:21.257Z,3.08
2018-05-09T09:38:48.794Z,3.53
2018-05-09T09:41:16.331Z,4.80
2018-05-09T09:43:43.926Z,10.03
2018-05-09T09:46:12.229Z,3.63
2018-05-09T09:48:39.766Z,4.93
2018-05-09T09:51:07.278Z,10.20
2018-05-09T09:53:35.121Z,7.33
2018-05-09T09:56:03.558Z,7.07
2018-05-09T09:58:31.090Z,8.93
2018-05-09T10:00:59.395Z,13.03
2018-05-09T10:03:27.845Z,10.23
2018-05-09T10:05:55.417Z,7.20
2018-05-09T10:08:22.990Z,9.33
2018-05-09T10:10:50.504Z,8.10
2018-05-09T10:13:18.798Z,10.93
2018-05-09T10:15:46.369Z,7.93
2018-05-09T10:18:14.995Z,9.53
2018-05-09T10:20:42.509Z,12.57
2018-05-09T10:23:10.445Z,7.70
2018-05-09T10:25:37.900Z,10.60
2018-05-09T10:28:05.809Z,8.57
2018-05-09T10:30:33.421Z,11.57
2018-05-09T10:33:01.707Z,8.00
2018-05-09T10:35:29.260Z,18.67
2018-05-09T10:37:56.777Z,7.40
2018-05-09T10:40:24.510Z,7.63
2018-05-09T10:42:52.438Z,9.53
2018-05-09T10:45:19.981Z,13.40
2018-05-09T10:47:47.497Z,5.53
2018-05-09T10:50:15.143Z,6.53
2018-05-09T10:52:43.412Z,7.47
2018-05-09T10:55:10.928Z,11.87
2018-05-09T10:57:38.432Z,13.10
2018-05-09T11:00:06.014Z,12.93
2018-05-09T11:02:33.973Z,16.40
2018-05-09T11:05:01.567Z,6.30
2018-05-09T11:07:29.061Z,9.93
2018-05-09T11:09:57.386Z,7.77
2018-05-09T11:12:24.930Z,10.37
2018-05-09T11:14:53.320Z,10.37
2018-05-09T11:17:21.597Z,11.80
2018-05-09T11:19:49.921Z,8.53
2018-05-09T11:22:17.487Z,10.77
2018-05-09T11:24:45.209Z,8.77
2018-05-09T11:27:13.478Z,6.00
2018-05-09T11:29:41.094Z,5.20
2018-05-09T11:32:08.761Z,4.90
2018-05-09T11:34:36.277Z,5.30
2018-05-09T11:37:03.795Z,6.20
2018-05-09T11:39:31.316Z,10.93
2018-05-09T11:41:58.962Z,8.63
2018-05-09T11:44:27.231Z,8.13
2018-05-09T11:46:54.781Z,5.83
2018-05-09T11:49:22.417Z,7.40
2018-05-09T11:51:49.954Z,12.43
2018-05-09T11:54:17.537Z,6.20
2018-05-09T11:56:46.046Z,9.77
2018-05-09T11:59:13.569Z,6.70
2018-05-09T12:01:41.115Z,7.50
2018-05-09T12:04:08.773Z,6.20
2018-05-09T12:06:36.328Z,6.03
2018-05-09T12:09:04.603Z,8.30
2018-05-09T12:11:32.135Z,11.87
2018-05-09T12:13:59.640Z,6.83
2018-05-09T12:16:27.285Z,8.77
2018-05-09T12:18:54.798Z,12.83
2018-05-09T12:21:23.070Z,5.50
2018-05-09T12:23:51.365Z,5.80
2018-05-09T12:26:18.973Z,7.97
2018-05-09T12:28:46.748Z,10.33
2018-05-09T12:31:14.393Z,14.17
2018-05-09T12:33:41.932Z,9.47
2018-05-09T12:36:09.560Z,7.50
2018-05-09T12:38:37.893Z,6.50
2018-05-09T12:41:05.391Z,11.40
2018-05-09T12:43:32.914Z,6.83
2018-05-09T12:46:00.457Z,6.93
2018-05-09T12:48:28.765Z,5.43
2018-05-09T12:50:56.353Z,8.63
2018-05-09T12:53:23.885Z,12.47
2018-05-09T12:55:52.154Z,4.90
2018-05-09T12:58:19.748Z,12.67
2018-05-09T13:00:48.019Z,7.70
2018-05-09T13:03:16.448Z,6.73
2018-05-09T13:05:44.057Z,6.73
2018-05-09T13:08:12.297Z,6.53
2018-05-09T13:10:40.847Z,6.80
2018-05-09T13:13:08.427Z,7.47
2018-05-09T13:15:35.952Z,7.53
2018-05-09T13:18:03.492Z,4.60
2018-05-09T13:20:31.036Z,5.90
2018-05-09T13:22:58.533Z,9.30
2018-05-09T13:25:26.061Z,8.50
2018-05-09T13:27:53.649Z,7.13
2018-05-09T13:30:21.175Z,9.80
2018-05-09T13:32:48.685Z,4.47
2018-05-09T13:35:16.329Z,4.90
2018-05-09T13:37:43.840Z,8.83
2018-05-09T13:40:11.526Z,6.60
2018-05-09T13:42:39.012Z,6.80
2018-05-09T13:45:07.354Z,6.77
2018-05-09T13:47:34.922Z,5.43
2018-05-09T13:50:02.459Z,7.57
2018-05-09T13:52:30.784Z,4.60
2018-05-09T13:54:58.306Z,6.17
2018-05-09T13:57:26.589Z,5.77
2018-05-09T13:59:54.113Z,9.97
2018-05-09T14:02:21.666Z,9.10
2018-05-09T14:04:49.191Z,7.33
2018-05-09T14:07:16.786Z,12.37
2018-05-09T14:09:44.415Z,5.80
2018-05-09T14:12:11.878Z,6.13
2018-05-09T14:14:39.410Z,7.83
2018-05-09T14:17:07.682Z,8.20
2018-05-09T14:19:35.216Z,4.73
2018-05-09T14:22:02.732Z,6.83
2018-05-09T14:24:30.341Z,5.60
2018-05-09T14:26:57.902Z,7.93
2018-05-09T14:29:25.469Z,9.17
2018-05-09T14:31:52.977Z,5.60
2018-05-09T14:34:20.514Z,8.00
2018-05-09T14:36:48.044Z,5.93
2018-05-09T14:39:22.344Z,7.40
2018-05-09T14:41:49.894Z,8.40
2018-05-09T14:44:17.449Z,8.20
2018-05-09T14:46:45.059Z,6.50
2018-05-09T14:49:12.586Z,6.27
2018-05-09T14:51:40.937Z,5.27
2018-05-09T14:54:08.439Z,9.03
2018-05-09T14:56:36.029Z,5.97
2018-05-09T14:59:04.298Z,9.63
2018-05-09T15:01:31.823Z,8.57
2018-05-09T15:03:59.321Z,10.77
2018-05-09T15:06:26.846Z,5.87
2018-05-09T15:08:54.358Z,9.20
2018-05-09T15:11:21.871Z,7.10
2018-05-09T15:13:50.157Z,6.60
2018-05-09T15:16:17.724Z,5.97
2018-05-09T15:18:45.998Z,6.57
2018-05-09T15:21:13.831Z,7.80
2018-05-09T15:23:41.336Z,7.33
2018-05-09T15:26:08.861Z,7.40
2018-05-09T15:28:36.360Z,5.03
2018-05-09T15:31:03.936Z,4.80
2018-05-09T15:33:31.447Z,8.70
2018-05-09T15:35:59.745Z,7.27
2018-05-09T15:38:28.151Z,5.33
2018-05-09T15:40:55.673Z,5.73
2018-05-09T15:43:23.185Z,7.20
2018-05-09T15:45:51.492Z,5.60
2018-05-09T15:48:19.052Z,8.70
2018-05-09T15:50:46.646Z,7.93
2018-05-09T15:53:14.365Z,7.23
2018-05-09T15:55:41.917Z,7.77
2018-05-09T15:58:09.765Z,12.13
2018-05-09T16:00:37.500Z,11.03
2018-05-09T16:03:05.488Z,5.47
2018-05-09T16:05:33.802Z,7.60
2018-05-09T16:08:01.581Z,10.50
2018-05-09T16:10:29.369Z,15.80
2018-05-09T16:12:56.977Z,9.90
2018-05-09T16:15:24.764Z,9.40
2018-05-09T16:17:52.308Z,5.87
2018-05-09T16:20:19.874Z,7.60
2018-05-09T16:22:47.462Z,8.53
2018-05-09T16:25:14.992Z,7.70
2018-05-09T16:27:43.355Z,7.90
2018-05-09T16:30:11.065Z,8.20
2018-05-09T16:32:44.381Z,7.77
2018-05-09T16:35:12.022Z,10.53
2018-05-09T16:37:39.608Z,6.30
2018-05-09T16:40:07.144Z,10.90
2018-05-09T16:42:34.723Z,6.20
2018-05-09T16:45:02.321Z,9.77
2018-05-09T16:47:30.684Z,7.77
2018-05-09T16:49:58.244Z,5.10
2018-05-09T16:52:25.764Z,10.43
2018-05-09T16:54:54.041Z,8.37
2018-05-09T16:57:22.390Z,9.00
2018-05-09T16:59:49.969Z,9.57
2018-05-09T17:02:17.849Z,10.77
2018-05-09T17:04:45.412Z,11.17
2018-05-09T17:07:13.004Z,7.10
2018-05-09T17:09:40.490Z,8.53
2018-05-09T17:12:08.790Z,7.80
2018-05-09T17:14:37.061Z,8.30
2018-05-09T17:17:04.632Z,8.20
2018-05-09T17:19:32.216Z,6.77
2018-05-09T17:22:17.953Z,5.73
2018-05-09T17:24:45.529Z,10.17
2018-05-09T17:27:13.008Z,8.40
2018-05-09T17:29:40.530Z,9.70
2018-05-09T17:32:08.821Z,6.47
2018-05-09T17:34:37.098Z,7.47
2018-05-09T17:37:04.628Z,9.17
2018-05-09T17:39:32.181Z,10.23
2018-05-09T17:41:59.700Z,6.40
2018-05-09T17:44:27.198Z,9.03
2018-05-09T17:46:55.510Z,7.97
2018-05-09T17:49:23.027Z,9.27
2018-05-09T17:51:50.558Z,10.70
2018-05-09T17:54:18.061Z,7.97
2018-05-09T17:56:45.596Z,8.67
2018-05-09T17:59:13.165Z,7.60
2018-05-09T18:01:40.683Z,9.70
2018-05-09T18:04:08.330Z,8.73
2018-05-09T18:06:35.839Z,13.37
2018-05-09T18:09:03.387Z,22.23
2018-05-09T18:11:30.958Z,22.77
2018-05-09T18:13:58.491Z,17.47
2018-05-09T18:16:26.012Z,18.03
2018-05-09T18:18:54.186Z,16.77
2018-05-09T18:21:21.713Z,11.70
2018-05-09T18:23:50.014Z,10.87
2018-05-09T18:26:17.533Z,11.90
2018-05-09T18:28:45.154Z,15.50
2018-05-09T18:31:12.726Z,19.90
2018-05-09T18:33:40.324Z,13.93
2018-05-09T18:36:07.868Z,18.83
2018-05-09T18:38:35.401Z,18.43
2018-05-09T18:41:02.938Z,14.97
2018-05-09T18:43:30.474Z,15.20
2018-05-09T18:45:58.775Z,16.40
2018-05-09T18:48:26.307Z,13.87
2018-05-09T18:50:53.819Z,14.23
2018-05-09T18:53:21.351Z,11.33
2018-05-09T18:55:49.198Z,13.50
2018-05-09T18:58:16.715Z,11.50
2018-05-09T19:00:44.989Z,13.07
2018-05-09T19:03:12.513Z,9.13
2018-05-09T19:05:40.164Z,11.20
2018-05-09T19:08:08.445Z,8.43
2018-05-09T19:10:36.743Z,9.27
2018-05-09T19:13:05.029Z,10.77
2018-05-09T19:15:33.297Z,9.17
2018-05-09T19:18:00.832Z,16.27
2018-05-09T19:20:28.349Z,15.80
2018-05-09T19:22:56.751Z,19.57
2018-05-09T19:25:25.062Z,30.20
2018-05-09T19:27:52.597Z,29.80
2018-05-09T19:30:20.194Z,31.70
2018-05-09T19:32:47.721Z,30.07
2018-05-09T19:35:15.260Z,34.23
2018-05-09T19:37:42.835Z,35.43
2018-05-09T19:40:10.402Z,40.80
2018-05-09T19:42:37.936Z,38.90
2018-05-09T19:45:05.467Z,39.43
2018-05-09T19:47:32.972Z,42.77
2018-05-09T19:50:00.601Z,42.00
2018-05-09T19:52:28.129Z,43.13
2018-05-09T19:54:56.424Z,38.10
2018-05-09T19:57:24.715Z,43.63
2018-05-09T19:59:52.350Z,34.43
2018-05-09T20:02:19.881Z,32.53
2018-05-09T20:04:47.874Z,31.30
2018-05-09T20:07:15.439Z,34.03
2018-05-09T20:09:42.989Z,33.10
2018-05-09T20:12:11.295Z,33.70
2018-05-09T20:14:38.836Z,34.47
2018-05-09T20:17:07.112Z,35.60
2018-05-09T20:19:34.654Z,35.67
2018-05-09T20:22:02.190Z,34.83
2018-05-09T20:24:29.731Z,31.57
2018-05-09T20:26:57.241Z,41.53
2018-05-09T20:29:24.809Z,33.13
2018-05-09T20:32:04.148Z,41.43
2018-05-09T20:34:32.460Z,40.40
2018-05-09T20:36:59.975Z,31.50
2018-05-09T20:39:28.313Z,43.43
2018-05-09T20:41:55.869Z,33.37
2018-05-09T20:44:24.159Z,33.50
2018-05-09T20:46:52.435Z,35.53
2018-05-09T20:49:20.741Z,30.27
2018-05-09T20:51:51.293Z,30.13
2018-05-09T20:54:18.857Z,27.87
2018-05-09T20:56:46.403Z,37.97
2018-05-09T20:59:13.948Z,32.70
2018-05-09T21:01:47.334Z,37.13
2018-05-09T21:04:14.876Z,32.47
2018-05-09T21:06:43.177Z,39.73
2018-05-09T21:09:10.858Z,29.37
2018-05-09T21:11:38.321Z,34.07
2018-05-09T21:14:05.865Z,31.67
2018-05-09T21:16:33.380Z,33.47
2018-05-09T21:19:00.957Z,34.20
2018-05-09T21:21:28.495Z,36.10
2018-05-09T21:23:56.780Z,37.57
2018-05-09T21:26:25.075Z,35.30
2018-05-09T21:28:53.351Z,37.33
2018-05-09T21:31:21.649Z,31.40
2018-05-09T21:33:49.214Z,30.67
2018-05-09T21:36:17.505Z,36.47
2018-05-09T21:38:45.825Z,38.13
2018-05-09T21:41:13.365Z,31.03
2018-05-09T21:43:41.689Z,31.77
2018-05-09T21:46:09.226Z,34.13
2018-05-09T21:48:37.548Z,32.87
2018-05-09T21:51:05.080Z,44.00
2018-05-09T21:53:32.661Z,31.70
2018-05-09T21:56:00.198Z,44.67
2018-05-09T21:58:27.743Z,43.93
2018-05-09T22:00:55.314Z,38.87
2018-05-09T22:03:22.828Z,42.27
2018-05-09T22:05:50.356Z,42.17
2018-05-09T22:08:17.909Z,40.57
2018-05-09T22:10:45.516Z,43.20
2018-05-09T22:13:13.752Z,37.43
2018-05-09T22:15:42.055Z,40.67
2018-05-09T22:18:10.324Z,40.70
2018-05-09T22:20:38.013Z,40.43
2018-05-09T22:23:06.325Z,43.00
2018-05-09T22:25:33.847Z,45.03
2018-05-09T22:28:01.357Z,45.03
2018-05-09T22:30:28.951Z,37.63
2018-05-09T22:32:56.482Z,38.77
2018-05-09T22:35:24.802Z,43.77
2018-05-09T22:37:52.366Z,48.47
2018-05-09T22:40:19.954Z,43.70
2018-05-09T22:42:47.468Z,43.97
2018-05-09T22:45:15.044Z,40.50
2018-05-09T22:47:42.648Z,41.73
2018-05-09T22:50:11.006Z,42.13
2018-05-09T22:52:38.559Z,50.50
2018-05-09T22:55:06.077Z,49.50
2018-05-09T22:57:34.398Z,40.50
2018-05-09T23:00:01.932Z,44.43
2018-05-09T23:02:30.242Z,49.47
2018-05-09T23:04:57.870Z,47.23
2018-05-09T23:07:25.428Z,43.83
2018-05-09T23:09:52.947Z,46.50
2018-05-09T23:12:21.246Z,45.77
2018-05-09T23:14:48.800Z,47.70
2018-05-09T23:17:17.106Z,47.10
2018-05-09T23:19:45.400Z,48.77
2018-05-09T23:22:12.956Z,44.63
2018-05-09T23:24:41.255Z,45.20
2018-05-09T23:27:09.559Z,42.53
2018-05-09T23:29:37.144Z,45.43
2018-05-09T23:32:04.712Z,39.87
2018-05-09T23:34:32.227Z,43.63
2018-05-09T23:37:01.301Z,39.77
2018-05-09T23:39:28.921Z,41.90
2018-05-09T23:41:56.386Z,48.03
2018-05-09T23:44:25.420Z,45.80
2018-05-09T23:46:52.966Z,48.60
2018-05-09T23:49:21.275Z,49.40
2018-05-09T23:51:49.607Z,46.57
2018-05-09T23:54:17.199Z,45.20
2018-05-09T23:56:44.757Z,41.50
2018-05-09T23:59:12.369Z,40.77
